Pagrindinis puslapis
METAR-TAF:

METAR-TAF

Oro uostai :

Terezina, Piauí, Brazilija

platuma: 05-03S, ilguma: 042-49W, Aukštis: 69 m

Dabartinis oras

Ataskaita buvo paskelbta 1 valandą ir 6 minutes, ne 21:00 UTC
Vėjas 4 kt iš Šiaurės Vakarų
Temperatūra 35°C
Drėgmė 32%
Slėgis 1008 hPa
Matomumas 10 km arba daugiau
nėra debesų žemiau 1500 m ir nėra kamuolinių lietaus debesų

METAR: SBTE 162100Z 32004KT CAVOK 35/16 Q1008

Laikas: 19:06 (22:06 UTC)

Prognozė

Ataskaita buvo paskelbta 6 valandos ir 6 minutes, ne 16:00 UTC
Prognozė galioja nuo 16 metu 18 UTC su 17 metu 06 UTC
Vėjas 5 kt nuo kintamojo kryptimis
Matomumas 10 km arba daugiau
nėra debesų žemiau 1500 m ir nėra kamuolinių lietaus debesų
Tapsmas
nuo 16 metu 23 UTC su 17 metu 01 UTC
Vėjas 3 kt iš Šiaurės/Šiaurės Vakarų

TAF: SBTE 161600Z 1618/1706 VRB05KT CAVOK TX37/1618Z TN25/1706Z BECMG 1623/1701 34003KT RMK PAY

Orai ataskaitas ir orų prognozės (METAR, TAF).

turimą stotys yra geltonos ir raudonos taškus žemėlapyje.

Perkelti pele per norėdami pamatyti stoties vardą.

Tada spustelėkite, norėdami matyti oro stebėjimo ir prognozės.

Norėdami pakeisti žemėlapį: spustelėkite ant žalios mygtukų su juodo kryžiaus žemyn,; žalią mygtuką su brūkšneliu, jei norite nutolinti; arba žalių rodyklių gretimoms žemėlapius.


METAR-TAF: